createdAt,value
2022-08-04T00:01:27.926Z,60.11
2022-08-04T00:04:42.269Z,60.22
2022-08-04T00:07:52.816Z,60.19
2022-08-04T00:10:58.696Z,60.22
2022-08-04T00:14:09.952Z,60.22
2022-08-04T00:17:14.630Z,60.35
2022-08-04T00:20:19.858Z,60.27
2022-08-04T00:23:24.781Z,60.31
2022-08-04T00:26:28.104Z,60.38
2022-08-04T00:29:31.244Z,60.35
2022-08-04T00:32:34.913Z,60.49
2022-08-04T00:35:39.766Z,60.55
2022-08-04T00:38:43.895Z,60.58
2022-08-04T00:42:05.043Z,60.59
2022-08-04T00:45:26.453Z,60.63
2022-08-04T00:48:43.118Z,60.71
2022-08-04T00:52:31.614Z,60.70
2022-08-04T00:55:39.147Z,60.69
2022-08-04T00:58:48.107Z,60.78
2022-08-04T01:02:08.727Z,60.87
2022-08-04T01:05:37.947Z,60.91
2022-08-04T01:08:59.147Z,61.01
2022-08-04T01:12:26.291Z,60.95
2022-08-04T01:16:00.431Z,61.06
2022-08-04T01:19:20.754Z,61.14
2022-08-04T01:22:32.734Z,61.14
2022-08-04T01:26:44.065Z,61.01
2022-08-04T01:29:50.311Z,61.11
2022-08-04T01:33:05.025Z,61.16
2022-08-04T01:36:10.049Z,61.19
2022-08-04T01:39:33.137Z,61.18
2022-08-04T01:42:37.601Z,61.13
2022-08-04T01:45:41.843Z,61.21
2022-08-04T01:48:46.789Z,61.15
2022-08-04T01:51:52.328Z,61.29
2022-08-04T01:54:55.718Z,61.25
2022-08-04T01:58:03.675Z,61.25
2022-08-04T02:01:13.163Z,61.30
2022-08-04T02:04:23.339Z,61.33
2022-08-04T02:07:40.368Z,61.47
2022-08-04T02:10:43.489Z,61.44
2022-08-04T02:13:49.115Z,61.55
2022-08-04T02:16:52.921Z,61.58
2022-08-04T02:20:05.004Z,61.61
2022-08-04T02:23:14.329Z,61.74
2022-08-04T02:26:22.528Z,61.75
2022-08-04T02:29:58.627Z,61.73
2022-08-04T02:33:07.565Z,61.74
2022-08-04T02:36:16.747Z,61.65
2022-08-04T02:39:21.772Z,61.58
2022-08-04T02:42:24.824Z,61.65
2022-08-04T02:45:30.641Z,61.63
2022-08-04T02:48:34.896Z,61.69
2022-08-04T02:51:41.930Z,61.67
2022-08-04T02:54:45.714Z,61.79
2022-08-04T02:57:50.750Z,61.82
2022-08-04T03:00:53.736Z,61.81
2022-08-04T03:04:25.448Z,61.78
2022-08-04T03:07:58.778Z,61.85
2022-08-04T03:11:30.093Z,61.79
2022-08-04T03:14:54.781Z,61.83
2022-08-04T03:18:06.902Z,61.92
2022-08-04T03:21:36.865Z,61.94
2022-08-04T03:24:58.439Z,62.03
2022-08-04T03:28:32.326Z,62.14
2022-08-04T03:31:59.153Z,62.13
2022-08-04T03:35:22.685Z,62.21
2022-08-04T03:39:00.226Z,62.27
2022-08-04T03:42:34.150Z,62.27
2022-08-04T03:46:06.003Z,62.27
2022-08-04T03:49:42.727Z,62.31
2022-08-04T03:53:24.567Z,62.31
2022-08-04T03:57:20.611Z,62.50
2022-08-04T04:00:34.632Z,62.69
2022-08-04T04:04:14.938Z,62.68
2022-08-04T04:07:20.540Z,62.67
2022-08-04T04:11:12.637Z,62.78
2022-08-04T04:14:23.042Z,62.79
2022-08-04T04:17:34.743Z,62.85
2022-08-04T04:20:56.177Z,63.01
2022-08-04T04:24:33.607Z,62.98
2022-08-04T04:28:45.656Z,63.08
2022-08-04T04:32:10.769Z,63.11
2022-08-04T04:35:49.237Z,63.23
2022-08-04T04:39:13.506Z,63.47
2022-08-04T04:42:39.702Z,63.56
2022-08-04T04:46:30.253Z,63.60
2022-08-04T04:49:48.721Z,63.70
2022-08-04T04:53:03.104Z,63.77
2022-08-04T04:56:14.781Z,63.85
2022-08-04T04:59:22.648Z,63.86
2022-08-04T05:02:50.240Z,63.96
2022-08-04T05:06:15.207Z,64.08
2022-08-04T05:09:32.128Z,64.17
2022-08-04T05:14:31.307Z,64.30
2022-08-04T05:16:27.219Z,64.50
2022-08-04T05:19:51.452Z,64.55
2022-08-04T05:22:59.866Z,64.72
2022-08-04T05:26:13.567Z,64.75
2022-08-04T05:29:31.957Z,64.86
2022-08-04T05:32:45.180Z,65.05
2022-08-04T05:36:17.147Z,65.17
2022-08-04T05:39:22.617Z,65.43
2022-08-04T05:42:27.428Z,65.63
2022-08-04T05:45:39.229Z,65.77
2022-08-04T05:48:44.443Z,65.79
2022-08-04T05:51:49.247Z,65.76
2022-08-04T05:54:53.100Z,65.85
2022-08-04T05:57:59.071Z,65.28
2022-08-04T06:01:03.038Z,65.16
2022-08-04T06:04:11.156Z,65.03
2022-08-04T06:07:14.744Z,64.96
2022-08-04T06:10:17.872Z,64.66
2022-08-04T06:13:46.774Z,64.37
2022-08-04T06:16:55.222Z,64.23
2022-08-04T06:20:19.610Z,63.95
2022-08-04T06:23:29.131Z,63.57
2022-08-04T06:26:37.260Z,63.40
2022-08-04T06:29:51.302Z,62.92
2022-08-04T06:33:03.562Z,63.07
2022-08-04T06:36:08.599Z,62.88
2022-08-04T06:39:12.187Z,62.66
2022-08-04T06:42:21.873Z,62.75
2022-08-04T06:45:27.321Z,62.44
2022-08-04T06:48:33.827Z,62.37
2022-08-04T06:51:45.239Z,62.13
2022-08-04T06:54:53.564Z,61.66
2022-08-04T06:58:02.499Z,61.56
2022-08-04T07:01:07.117Z,61.34
2022-08-04T07:04:11.148Z,61.12
2022-08-04T07:07:15.101Z,60.32
2022-08-04T07:10:22.331Z,60.23
2022-08-04T07:13:27.622Z,60.10
2022-08-04T07:16:32.141Z,59.69
2022-08-04T07:19:38.711Z,59.21
2022-08-04T07:22:43.682Z,58.91
2022-08-04T07:25:59.911Z,58.52
2022-08-04T07:29:15.149Z,57.92
2022-08-04T07:32:23.144Z,57.89
2022-08-04T07:36:05.694Z,57.24
2022-08-04T07:38:52.224Z,56.67
2022-08-04T07:41:57.310Z,56.67
2022-08-04T07:45:00.544Z,56.64
2022-08-04T07:48:07.338Z,56.00
2022-08-04T07:51:11.370Z,55.49
2022-08-04T07:54:15.376Z,55.66
2022-08-04T07:57:40.205Z,54.91
2022-08-04T08:00:47.061Z,54.23
2022-08-04T08:03:52.271Z,53.39
2022-08-04T08:06:58.003Z,53.15
2022-08-04T08:10:01.443Z,52.30
2022-08-04T08:13:05.081Z,52.19
2022-08-04T08:16:08.223Z,51.69
2022-08-04T08:19:12.423Z,51.28
2022-08-04T08:22:15.757Z,50.65
2022-08-04T08:25:19.429Z,50.65
2022-08-04T08:28:24.968Z,50.23
2022-08-04T08:31:55.633Z,49.88
2022-08-04T08:34:51.222Z,49.53
2022-08-04T08:38:02.996Z,48.92
2022-08-04T08:41:31.068Z,48.70
2022-08-04T08:45:08.142Z,48.52
2022-08-04T08:48:36.510Z,48.37
2022-08-04T08:51:49.861Z,48.18
2022-08-04T08:55:14.028Z,47.62
2022-08-04T08:58:38.753Z,47.32
2022-08-04T09:02:14.387Z,47.14
2022-08-04T09:05:36.960Z,46.69
2022-08-04T09:09:00.096Z,46.26
2022-08-04T09:12:25.642Z,46.22
2022-08-04T09:15:41.793Z,45.62
2022-08-04T09:18:56.702Z,45.13
2022-08-04T09:22:12.794Z,44.76
2022-08-04T09:25:26.430Z,44.28
2022-08-04T09:28:53.482Z,43.97
2022-08-04T09:32:29.087Z,43.06
2022-08-04T09:36:11.299Z,42.60
2022-08-04T09:39:26.411Z,42.41
2022-08-04T09:42:51.123Z,42.45
2022-08-04T09:46:17.031Z,42.15
2022-08-04T09:49:28.483Z,41.04
2022-08-04T09:53:00.236Z,40.92
2022-08-04T09:56:28.875Z,40.63
2022-08-04T09:59:41.063Z,40.83
2022-08-04T10:02:56.756Z,40.43
2022-08-04T10:06:21.459Z,40.17
2022-08-04T10:10:01.985Z,40.76
2022-08-04T10:13:23.649Z,40.23
2022-08-04T10:16:40.358Z,39.40
2022-08-04T10:19:43.340Z,39.24
2022-08-04T10:23:23.925Z,38.82
2022-08-04T10:26:45.600Z,38.65
2022-08-04T10:29:48.999Z,38.44
2022-08-04T10:33:21.350Z,38.30
2022-08-04T10:36:31.095Z,37.83
2022-08-04T10:40:07.779Z,37.90
2022-08-04T10:43:23.083Z,37.96
2022-08-04T10:46:31.507Z,37.45
2022-08-04T10:49:40.787Z,38.14
2022-08-04T10:53:15.453Z,38.01
2022-08-04T10:56:30.183Z,38.10
2022-08-04T10:59:47.797Z,37.30
2022-08-04T11:03:15.935Z,37.30
2022-08-04T11:06:19.613Z,37.39
2022-08-04T11:09:25.872Z,37.07
2022-08-04T11:12:29.964Z,37.13
2022-08-04T11:15:49.231Z,37.18
2022-08-04T11:19:23.368Z,36.99
2022-08-04T11:23:01.173Z,37.12
2022-08-04T11:26:19.650Z,36.43
2022-08-04T11:29:42.348Z,36.12
2022-08-04T11:33:09.104Z,36.61
2022-08-04T11:36:32.324Z,36.59
2022-08-04T11:39:45.102Z,36.54
2022-08-04T11:43:02.493Z,36.65
2022-08-04T11:46:13.864Z,36.56
2022-08-04T11:49:57.217Z,36.14
2022-08-04T11:52:58.337Z,36.82
2022-08-04T11:56:09.389Z,36.88
2022-08-04T11:59:13.320Z,37.22
2022-08-04T12:02:28.622Z,37.17
2022-08-04T12:05:41.691Z,36.52
2022-08-04T12:08:53.794Z,36.25
2022-08-04T12:12:15.674Z,36.02
2022-08-04T12:16:01.390Z,35.93
2022-08-04T12:19:21.099Z,36.14
2022-08-04T12:22:30.601Z,35.85
2022-08-04T12:25:44.724Z,35.88
2022-08-04T12:29:09.697Z,36.04
2022-08-04T12:32:22.371Z,35.94
2022-08-04T12:35:35.418Z,36.06
2022-08-04T12:38:47.595Z,36.08
2022-08-04T12:42:08.759Z,36.29
2022-08-04T12:45:14.235Z,36.31
2022-08-04T12:48:21.624Z,35.94
2022-08-04T12:52:06.617Z,36.09
2022-08-04T12:54:54.377Z,35.41
2022-08-04T12:58:03.326Z,35.85
2022-08-04T13:02:10.205Z,35.62
2022-08-04T13:04:42.465Z,36.27
2022-08-04T13:07:51.012Z,36.05
2022-08-04T13:11:00.285Z,36.13
2022-08-04T13:14:25.651Z,36.88
2022-08-04T13:18:02.055Z,36.87
2022-08-04T13:21:50.099Z,37.11
2022-08-04T13:24:56.901Z,36.78
2022-08-04T13:28:22.704Z,37.00
2022-08-04T13:31:35.808Z,37.61
2022-08-04T13:34:49.068Z,37.96
2022-08-04T13:37:57.492Z,37.65
2022-08-04T13:41:04.734Z,37.60
2022-08-04T13:44:19.412Z,38.04
2022-08-04T13:47:28.214Z,38.44
2022-08-04T13:50:33.521Z,38.70
2022-08-04T13:53:38.833Z,38.45
2022-08-04T13:56:49.493Z,38.55
2022-08-04T13:59:57.815Z,37.88
2022-08-04T14:03:23.645Z,37.53
2022-08-04T14:06:34.916Z,38.01
2022-08-04T14:09:39.660Z,37.74
2022-08-04T14:12:50.421Z,37.62
2022-08-04T14:16:02.829Z,37.51
2022-08-04T14:19:07.551Z,37.78
2022-08-04T14:22:27.629Z,37.57
2022-08-04T14:25:35.708Z,37.51
2022-08-04T14:29:09.615Z,37.35
2022-08-04T14:32:12.937Z,37.56
2022-08-04T14:35:17.838Z,37.20
2022-08-04T14:38:20.919Z,37.52
2022-08-04T14:41:29.505Z,37.40
2022-08-04T14:44:32.689Z,37.67
2022-08-04T14:47:52.031Z,37.90
2022-08-04T14:50:56.272Z,37.72
2022-08-04T14:53:59.224Z,38.30
2022-08-04T14:57:06.888Z,37.98
2022-08-04T15:00:13.569Z,38.23
2022-08-04T15:03:21.925Z,38.26
2022-08-04T15:06:27.375Z,38.25
2022-08-04T15:09:31.552Z,38.06
2022-08-04T15:12:34.523Z,38.32
2022-08-04T15:15:39.534Z,38.47
2022-08-04T15:18:42.589Z,38.26
2022-08-04T15:21:45.707Z,38.53
2022-08-04T15:24:52.157Z,38.68
2022-08-04T15:28:00.639Z,38.67
2022-08-04T15:31:10.652Z,39.17
2022-08-04T15:34:46.292Z,39.28
2022-08-04T15:37:58.340Z,39.12
2022-08-04T15:41:10.516Z,39.26
2022-08-04T15:44:43.791Z,39.23
2022-08-04T15:48:13.038Z,39.58
2022-08-04T15:51:32.091Z,39.50
2022-08-04T15:54:37.961Z,39.69
2022-08-04T15:57:59.933Z,39.64
2022-08-04T16:01:02.841Z,39.89
2022-08-04T16:04:22.757Z,40.42
2022-08-04T16:07:57.217Z,40.18
2022-08-04T16:11:00.141Z,40.52
2022-08-04T16:14:03.019Z,40.44
2022-08-04T16:17:16.604Z,40.95
2022-08-04T16:20:20.515Z,41.20
2022-08-04T16:23:54.256Z,41.34
2022-08-04T16:27:00.929Z,41.32
2022-08-04T16:30:13.939Z,41.69
2022-08-04T16:33:17.406Z,41.63
2022-08-04T16:36:58.410Z,42.13
2022-08-04T16:40:38.547Z,41.85
2022-08-04T16:43:41.944Z,41.47
2022-08-04T16:47:21.535Z,41.52
2022-08-04T16:50:08.052Z,41.33
2022-08-04T16:53:14.691Z,41.82
2022-08-04T16:56:36.212Z,41.61
2022-08-04T16:59:51.897Z,41.86
2022-08-04T17:02:55.246Z,42.15
2022-08-04T17:06:17.680Z,42.23
2022-08-04T17:09:23.314Z,42.24
2022-08-04T17:12:29.136Z,42.14
2022-08-04T17:15:32.092Z,41.96
2022-08-04T17:18:37.895Z,42.14
2022-08-04T17:21:40.781Z,42.40
2022-08-04T17:24:43.654Z,42.40
2022-08-04T17:28:18.417Z,42.49
2022-08-04T17:31:10.949Z,42.39
2022-08-04T17:34:19.475Z,42.54
2022-08-04T17:37:39.704Z,42.80
2022-08-04T17:40:57.262Z,42.87
2022-08-04T17:44:06.862Z,42.75
2022-08-04T17:47:19.568Z,42.80
2022-08-04T17:50:28.618Z,42.98
2022-08-04T17:53:52.867Z,42.99
2022-08-04T17:56:59.642Z,42.91
2022-08-04T18:00:02.808Z,42.94
2022-08-04T18:03:29.144Z,43.38
2022-08-04T18:06:33.124Z,43.47
2022-08-04T18:10:02.080Z,43.66
2022-08-04T18:13:14.312Z,43.88
2022-08-04T18:16:22.590Z,43.89
2022-08-04T18:19:26.144Z,43.70
2022-08-04T18:22:34.470Z,43.79
2022-08-04T18:25:51.537Z,44.25
2022-08-04T18:28:55.177Z,43.97
2022-08-04T18:31:58.306Z,44.31
2022-08-04T18:35:07.055Z,44.47
2022-08-04T18:38:22.142Z,44.34
2022-08-04T18:42:02.439Z,44.72
2022-08-04T18:44:55.194Z,44.81
2022-08-04T18:48:01.293Z,44.86
2022-08-04T18:51:23.223Z,45.03
2022-08-04T18:54:27.681Z,45.20
2022-08-04T18:57:59.337Z,45.26
2022-08-04T19:00:55.856Z,45.23
2022-08-04T19:03:59.019Z,45.44
2022-08-04T19:07:26.581Z,45.57
2022-08-04T19:10:26.754Z,45.46
2022-08-04T19:13:34.792Z,45.77
2022-08-04T19:16:38.288Z,45.92
2022-08-04T19:19:47.549Z,45.93
2022-08-04T19:24:29.359Z,46.02
2022-08-04T19:26:20.717Z,46.06
2022-08-04T19:29:37.783Z,46.14
2022-08-04T19:32:41.218Z,46.26
2022-08-04T19:35:50.730Z,46.39
2022-08-04T19:38:54.877Z,46.38
2022-08-04T19:42:06.142Z,46.49
2022-08-04T19:45:15.436Z,46.50
2022-08-04T19:48:20.115Z,46.62
2022-08-04T19:51:23.301Z,46.63
2022-08-04T19:54:30.828Z,46.85
2022-08-04T19:57:36.165Z,46.90
2022-08-04T20:00:44.686Z,47.02
2022-08-04T20:04:08.268Z,47.05
2022-08-04T20:07:14.649Z,47.10
2022-08-04T20:10:23.899Z,47.30
2022-08-04T20:13:30.974Z,47.48
2022-08-04T20:16:40.967Z,47.50
2022-08-04T20:19:51.233Z,47.50
2022-08-04T20:22:54.672Z,47.66
2022-08-04T20:25:57.571Z,47.70
2022-08-04T20:29:00.512Z,47.92
2022-08-04T20:32:10.543Z,48.04
2022-08-04T20:35:26.769Z,48.00
2022-08-04T20:38:33.080Z,47.96
2022-08-04T20:41:38.746Z,48.08
2022-08-04T20:44:49.752Z,48.26
2022-08-04T20:47:54.179Z,48.23
2022-08-04T20:50:57.549Z,48.31
2022-08-04T20:54:02.478Z,48.43
2022-08-04T20:57:08.975Z,48.36
2022-08-04T21:00:13.392Z,48.71
2022-08-04T21:03:16.750Z,48.66
2022-08-04T21:06:20.920Z,48.89
2022-08-04T21:09:38.623Z,48.94
2022-08-04T21:12:49.687Z,48.93
2022-08-04T21:15:59.234Z,49.02
2022-08-04T21:19:05.585Z,49.19
2022-08-04T21:25:42.971Z,49.47
2022-08-04T21:28:47.218Z,49.37
2022-08-04T21:31:53.430Z,49.46
2022-08-04T21:35:06.056Z,49.41
2022-08-04T21:38:17.179Z,49.63
2022-08-04T21:41:24.858Z,49.63
2022-08-04T21:44:30.400Z,49.92
2022-08-04T21:47:45.830Z,49.85
2022-08-04T21:50:50.483Z,49.89
2022-08-04T21:53:53.885Z,50.05
2022-08-04T21:56:57.762Z,50.13
2022-08-04T22:00:00.769Z,50.21
2022-08-04T22:03:18.655Z,50.09
2022-08-04T22:06:33.826Z,50.15
2022-08-04T22:09:38.548Z,50.25
2022-08-04T22:12:44.588Z,50.10
2022-08-04T22:16:03.608Z,50.23
2022-08-04T22:19:10.872Z,50.30
2022-08-04T22:22:25.289Z,50.46
2022-08-04T22:25:30.852Z,50.63
2022-08-04T22:28:34.394Z,50.72
2022-08-04T22:31:56.140Z,50.64
2022-08-04T22:35:03.024Z,50.65
2022-08-04T22:38:28.879Z,50.54
2022-08-04T22:41:48.854Z,50.49
2022-08-04T22:45:03.281Z,50.44
2022-08-04T22:48:10.791Z,50.65
2022-08-04T22:51:13.923Z,50.59
2022-08-04T22:54:17.362Z,50.55
2022-08-04T22:57:20.255Z,50.64
2022-08-04T23:00:43.162Z,50.42
2022-08-04T23:03:55.282Z,50.51
2022-08-04T23:07:00.070Z,50.67
2022-08-04T23:10:04.725Z,50.45
2022-08-04T23:13:10.909Z,50.56
2022-08-04T23:16:14.595Z,50.80
2022-08-04T23:19:17.609Z,50.76
2022-08-04T23:22:37.419Z,50.82
2022-08-04T23:26:08.475Z,50.74
2022-08-04T23:29:08.724Z,50.80
2022-08-04T23:32:11.579Z,50.78
2022-08-04T23:35:16.197Z,50.63
2022-08-04T23:38:30.563Z,50.62
2022-08-04T23:41:55.182Z,50.49
2022-08-04T23:44:58.331Z,50.60
2022-08-04T23:48:18.244Z,50.51
2022-08-04T23:51:22.566Z,50.52
2022-08-04T23:54:26.133Z,50.55
2022-08-04T23:57:31.151Z,50.67
